createdAt,value
2022-12-01T00:01:18.750Z,13.50
2022-12-01T00:03:45.654Z,13.50
2022-12-01T00:06:17.345Z,13.50
2022-12-01T00:09:04.071Z,13.50
2022-12-01T00:11:31.032Z,13.60
2022-12-01T00:13:57.828Z,13.60
2022-12-01T00:16:24.705Z,13.60
2022-12-01T00:18:52.753Z,13.60
2022-12-01T00:21:21.936Z,13.60
2022-12-01T00:23:51.753Z,13.60
2022-12-01T00:26:19.744Z,13.60
2022-12-01T00:28:55.773Z,13.60
2022-12-01T00:31:23.086Z,13.70
2022-12-01T00:33:50.450Z,13.70
2022-12-01T00:36:18.142Z,13.70
2022-12-01T00:38:45.291Z,13.70
2022-12-01T00:41:12.079Z,13.70
2022-12-01T00:43:39.752Z,13.70
2022-12-01T00:46:06.723Z,13.60
2022-12-01T00:48:33.665Z,13.70
2022-12-01T00:51:00.548Z,13.70
2022-12-01T00:53:27.375Z,13.70
2022-12-01T00:55:54.325Z,13.70
2022-12-01T00:58:21.802Z,13.70
2022-12-01T01:00:49.576Z,13.70
2022-12-01T01:03:16.453Z,13.70
2022-12-01T01:05:43.912Z,13.70
2022-12-01T01:08:13.632Z,13.70
2022-12-01T01:10:42.180Z,13.70
2022-12-01T01:13:09.504Z,13.70
2022-12-01T01:15:36.753Z,13.70
2022-12-01T01:18:04.916Z,13.70
2022-12-01T01:20:32.493Z,13.70
2022-12-01T01:22:59.471Z,13.70
2022-12-01T01:25:26.492Z,13.60
2022-12-01T01:27:53.367Z,13.60
2022-12-01T01:30:20.821Z,13.60
2022-12-01T01:32:47.700Z,13.60
2022-12-01T01:35:14.476Z,13.60
2022-12-01T01:37:41.309Z,13.60
2022-12-01T01:40:08.960Z,13.60
2022-12-01T01:42:38.323Z,13.60
2022-12-01T01:45:17.180Z,13.60
2022-12-01T01:47:46.291Z,13.60
2022-12-01T01:50:16.283Z,13.50
2022-12-01T01:52:50.661Z,13.50
2022-12-01T01:55:19.469Z,13.50
2022-12-01T01:57:46.684Z,13.50
2022-12-01T02:00:17.324Z,13.50
2022-12-01T02:02:46.230Z,13.50
2022-12-01T02:05:20.387Z,13.50
2022-12-01T02:07:48.094Z,13.50
2022-12-01T02:10:22.366Z,13.40
2022-12-01T02:13:07.269Z,13.50
2022-12-01T02:15:55.752Z,13.50
2022-12-01T02:18:44.288Z,13.50
2022-12-01T02:21:20.314Z,13.40
2022-12-01T02:24:16.430Z,13.40
2022-12-01T02:26:53.314Z,13.40
2022-12-01T02:29:41.622Z,13.40
2022-12-01T02:32:41.608Z,13.40
2022-12-01T02:35:43.449Z,13.40
2022-12-01T02:38:19.983Z,13.30
2022-12-01T02:40:54.390Z,13.40
2022-12-01T02:43:30.361Z,13.40
2022-12-01T02:46:12.064Z,13.30
2022-12-01T02:48:42.943Z,13.30
2022-12-01T02:51:17.834Z,13.30
2022-12-01T02:53:44.985Z,13.30
2022-12-01T02:56:13.608Z,13.30
2022-12-01T02:58:43.770Z,13.30
2022-12-01T03:01:24.743Z,13.30
2022-12-01T03:04:16.955Z,13.30
2022-12-01T03:06:59.437Z,13.30
2022-12-01T03:09:55.017Z,13.30
2022-12-01T03:13:15.378Z,13.30
2022-12-01T03:16:15.582Z,13.20
2022-12-01T03:18:53.071Z,13.20
2022-12-01T03:21:37.923Z,13.20
2022-12-01T03:24:12.968Z,13.20
2022-12-01T03:26:42.863Z,13.20
2022-12-01T03:29:43.895Z,13.20
2022-12-01T03:32:23.680Z,13.20
2022-12-01T03:35:14.488Z,13.20
2022-12-01T03:37:47.118Z,13.20
2022-12-01T03:40:18.340Z,13.20
2022-12-01T03:43:13.950Z,13.20
2022-12-01T03:45:52.547Z,13.20
2022-12-01T03:48:19.603Z,13.20
2022-12-01T03:51:04.849Z,13.20
2022-12-01T03:54:27.093Z,13.20
2022-12-01T03:56:59.709Z,13.20
2022-12-01T03:59:29.166Z,13.20
2022-12-01T04:01:57.385Z,13.20
2022-12-01T04:04:24.310Z,13.20
2022-12-01T04:06:51.448Z,13.20
2022-12-01T04:09:18.376Z,13.20
2022-12-01T04:12:03.874Z,13.20
2022-12-01T04:14:30.668Z,13.20
2022-12-01T04:16:57.781Z,13.20
2022-12-01T04:19:24.811Z,13.20
2022-12-01T04:21:51.631Z,13.30
2022-12-01T04:24:18.481Z,13.30
2022-12-01T04:26:46.117Z,13.30
2022-12-01T04:29:13.879Z,13.20
2022-12-01T04:31:44.039Z,13.30
2022-12-01T04:34:11.310Z,13.30
2022-12-01T04:36:38.559Z,13.20
2022-12-01T04:39:07.894Z,13.30
2022-12-01T04:41:34.761Z,13.30
2022-12-01T04:44:01.552Z,13.30
2022-12-01T04:46:28.460Z,13.30
2022-12-01T04:48:55.355Z,13.30
2022-12-01T04:51:22.411Z,13.30
2022-12-01T04:53:50.576Z,13.30
2022-12-01T04:56:17.862Z,13.30
2022-12-01T04:58:45.059Z,13.30
2022-12-01T05:01:13.782Z,13.30
2022-12-01T05:03:42.879Z,13.30
2022-12-01T05:06:14.827Z,13.30
2022-12-01T05:08:42.009Z,13.40
2022-12-01T05:11:11.353Z,13.30
2022-12-01T05:13:43.806Z,13.30
2022-12-01T05:16:14.077Z,13.40
2022-12-01T05:18:41.340Z,13.40
2022-12-01T05:21:10.114Z,13.40
2022-12-01T05:23:41.708Z,13.40
2022-12-01T05:26:09.374Z,13.40
2022-12-01T05:28:36.658Z,13.40
2022-12-01T05:31:03.955Z,13.40
2022-12-01T05:33:30.861Z,13.40
2022-12-01T05:35:57.708Z,13.40
2022-12-01T05:38:24.543Z,13.50
2022-12-01T05:40:55.826Z,13.50
2022-12-01T05:43:28.712Z,13.50
2022-12-01T05:45:57.597Z,13.50
2022-12-01T05:48:25.047Z,13.50
2022-12-01T05:50:51.876Z,13.50
2022-12-01T05:53:18.794Z,13.50
2022-12-01T05:55:46.099Z,13.50
2022-12-01T05:58:13.770Z,13.50
2022-12-01T06:00:45.676Z,13.50
2022-12-01T06:03:13.603Z,13.50
2022-12-01T06:05:40.955Z,13.50
2022-12-01T06:08:08.186Z,13.50
2022-12-01T06:10:35.255Z,13.50
2022-12-01T06:13:02.476Z,13.50
2022-12-01T06:15:29.729Z,13.50
2022-12-01T06:17:59.604Z,13.50
2022-12-01T06:20:26.689Z,13.50
2022-12-01T06:22:53.820Z,13.50
2022-12-01T06:25:21.014Z,13.50
2022-12-01T06:27:47.805Z,13.50
2022-12-01T06:30:14.813Z,13.50
2022-12-01T06:32:41.628Z,13.50
2022-12-01T06:35:08.743Z,13.50
2022-12-01T06:37:35.575Z,13.60
2022-12-01T06:40:02.463Z,13.50
2022-12-01T06:42:31.737Z,13.50
2022-12-01T06:44:58.541Z,13.60
2022-12-01T06:47:25.297Z,13.50
2022-12-01T06:49:52.254Z,13.60
2022-12-01T06:52:19.300Z,13.50
2022-12-01T06:54:46.113Z,13.50
2022-12-01T06:57:13.213Z,13.60
2022-12-01T06:59:40.227Z,13.60
2022-12-01T07:02:12.679Z,13.60
2022-12-01T07:04:39.533Z,13.60
2022-12-01T07:07:06.579Z,13.60
2022-12-01T07:09:33.897Z,13.60
2022-12-01T07:12:00.950Z,13.60
2022-12-01T07:14:28.070Z,13.70
2022-12-01T07:16:55.141Z,13.70
2022-12-01T07:19:22.201Z,13.70
2022-12-01T07:21:48.971Z,13.70
2022-12-01T07:24:16.058Z,13.70
2022-12-01T07:26:43.725Z,13.70
2022-12-01T07:29:10.920Z,13.70
2022-12-01T07:31:38.604Z,13.70
2022-12-01T07:34:05.933Z,13.60
2022-12-01T07:36:32.958Z,13.60
2022-12-01T07:39:07.619Z,13.60
2022-12-01T07:41:35.434Z,13.70
2022-12-01T07:44:02.882Z,13.70
2022-12-01T07:46:30.120Z,13.60
2022-12-01T07:48:57.691Z,13.60
2022-12-01T07:51:25.588Z,13.60
2022-12-01T07:53:53.662Z,13.60
2022-12-01T07:56:21.678Z,13.60
2022-12-01T07:58:48.948Z,13.50
2022-12-01T08:01:21.612Z,13.60
2022-12-01T08:03:53.998Z,13.50
2022-12-01T08:06:22.416Z,13.50
2022-12-01T08:08:49.842Z,13.60
2022-12-01T08:11:19.784Z,13.60
2022-12-01T08:13:47.283Z,13.60
2022-12-01T08:16:16.128Z,13.60
2022-12-01T08:18:43.656Z,13.60
2022-12-01T08:21:13.470Z,13.60
2022-12-01T08:23:42.067Z,13.60
2022-12-01T08:26:12.837Z,13.60
2022-12-01T08:28:40.089Z,13.60
2022-12-01T08:31:12.112Z,13.60
2022-12-01T08:33:39.065Z,13.70
2022-12-01T08:36:06.735Z,13.70
2022-12-01T08:38:33.893Z,13.70
2022-12-01T08:41:09.191Z,13.70
2022-12-01T08:43:57.235Z,13.70
2022-12-01T08:46:26.816Z,13.70
2022-12-01T08:48:55.087Z,13.70
2022-12-01T08:51:22.122Z,13.70
2022-12-01T08:53:50.156Z,13.70
2022-12-01T08:56:32.551Z,13.80
2022-12-01T08:59:00.140Z,13.80
2022-12-01T09:01:27.672Z,13.80
2022-12-01T09:04:06.708Z,13.80
2022-12-01T09:06:39.544Z,13.80
2022-12-01T09:09:07.059Z,13.80
2022-12-01T09:11:33.948Z,13.80
2022-12-01T09:14:01.439Z,13.80
2022-12-01T09:16:28.376Z,13.80
2022-12-01T09:18:55.747Z,13.80
2022-12-01T09:21:26.307Z,13.90
2022-12-01T09:23:54.114Z,13.90
2022-12-01T09:26:21.453Z,13.90
2022-12-01T09:28:52.643Z,13.90
2022-12-01T09:31:20.854Z,14.00
2022-12-01T09:33:47.782Z,14.00
2022-12-01T09:36:14.589Z,14.00
2022-12-01T09:38:41.536Z,14.00
2022-12-01T09:41:17.081Z,14.00
2022-12-01T09:43:50.432Z,14.00
2022-12-01T09:46:22.640Z,14.00
2022-12-01T09:48:53.165Z,14.00
2022-12-01T09:51:26.062Z,14.00
2022-12-01T09:53:56.854Z,14.00
2022-12-01T09:56:26.815Z,14.00
2022-12-01T09:58:59.326Z,14.00
2022-12-01T10:01:33.368Z,14.00
2022-12-01T10:04:13.842Z,14.00
2022-12-01T10:06:47.511Z,14.00
2022-12-01T10:09:25.909Z,14.00
2022-12-01T10:11:58.841Z,14.10
2022-12-01T10:14:29.895Z,14.10
2022-12-01T10:16:59.378Z,14.10
2022-12-01T10:19:56.023Z,14.10
2022-12-01T10:22:57.226Z,14.10
2022-12-01T10:25:26.881Z,14.10
2022-12-01T10:28:01.040Z,14.20
2022-12-01T10:30:27.968Z,14.20
2022-12-01T10:32:56.317Z,14.20
2022-12-01T10:35:26.901Z,14.20
2022-12-01T10:37:59.606Z,14.20
2022-12-01T10:40:27.636Z,14.30
2022-12-01T10:42:55.730Z,14.30
2022-12-01T10:45:30.358Z,14.30
2022-12-01T10:48:21.309Z,14.30
2022-12-01T10:50:51.877Z,14.30
2022-12-01T10:53:32.012Z,14.30
2022-12-01T10:56:04.996Z,14.30
2022-12-01T10:58:43.528Z,14.30
2022-12-01T11:01:26.629Z,14.40
2022-12-01T11:04:32.151Z,14.40
2022-12-01T11:06:59.146Z,14.40
2022-12-01T11:09:29.073Z,14.40
2022-12-01T11:12:04.236Z,14.40
2022-12-01T11:14:53.234Z,14.50
2022-12-01T11:17:37.106Z,14.50
2022-12-01T11:20:27.289Z,14.60
2022-12-01T11:23:24.340Z,14.60
2022-12-01T11:26:08.854Z,14.60
2022-12-01T11:28:37.200Z,14.60
2022-12-01T11:31:07.492Z,14.70
2022-12-01T11:33:54.529Z,14.70
2022-12-01T11:36:26.390Z,14.70
2022-12-01T11:38:59.567Z,14.70
2022-12-01T11:41:45.070Z,14.70
2022-12-01T11:44:43.544Z,14.70
2022-12-01T11:47:25.205Z,14.70
2022-12-01T11:49:58.413Z,14.70
2022-12-01T11:52:27.251Z,14.70
2022-12-01T11:55:21.681Z,14.70
2022-12-01T11:57:51.400Z,14.70
2022-12-01T12:00:22.598Z,14.70
2022-12-01T12:03:11.058Z,14.70
2022-12-01T12:06:01.514Z,14.80
2022-12-01T12:09:13.779Z,14.80
2022-12-01T12:12:00.513Z,14.80
2022-12-01T12:14:48.780Z,14.80
2022-12-01T12:17:35.063Z,14.80
2022-12-01T12:20:24.984Z,14.70
2022-12-01T12:23:12.566Z,14.70
2022-12-01T12:25:48.935Z,14.70
2022-12-01T12:28:48.323Z,14.70
2022-12-01T12:31:23.996Z,14.60
2022-12-01T12:34:28.392Z,14.60
2022-12-01T12:37:10.346Z,14.60
2022-12-01T12:39:55.384Z,14.50
2022-12-01T12:42:54.570Z,14.50
2022-12-01T12:45:26.203Z,14.50
2022-12-01T12:48:05.430Z,14.40
2022-12-01T12:50:58.559Z,14.50
2022-12-01T12:53:33.179Z,14.50
2022-12-01T12:56:05.349Z,14.50
2022-12-01T12:58:39.232Z,14.50
2022-12-01T13:01:21.269Z,14.60
2022-12-01T13:04:09.519Z,14.60
2022-12-01T13:06:51.768Z,14.60
2022-12-01T13:09:41.489Z,14.60
2022-12-01T13:12:15.744Z,14.60
2022-12-01T13:15:01.034Z,14.60
2022-12-01T13:17:35.442Z,14.60
2022-12-01T13:20:02.306Z,14.60
2022-12-01T13:22:34.354Z,14.60
2022-12-01T13:25:02.862Z,14.60
2022-12-01T13:27:34.444Z,14.60
2022-12-01T13:30:01.736Z,14.60
2022-12-01T13:32:34.042Z,14.60
2022-12-01T13:35:04.779Z,14.60
2022-12-01T13:37:34.457Z,14.60
2022-12-01T13:40:29.467Z,14.50
2022-12-01T13:43:05.497Z,14.50
2022-12-01T13:45:40.576Z,14.50
2022-12-01T13:48:48.628Z,14.50
2022-12-01T13:51:15.700Z,14.50
2022-12-01T13:54:06.231Z,14.50
2022-12-01T13:56:46.737Z,14.50
2022-12-01T13:59:40.231Z,14.50
2022-12-01T14:02:21.481Z,14.50
2022-12-01T14:04:48.791Z,14.50
2022-12-01T14:07:33.241Z,14.50
2022-12-01T14:10:20.459Z,14.50
2022-12-01T14:12:49.082Z,14.50
2022-12-01T14:15:42.234Z,14.40
2022-12-01T14:18:18.537Z,14.50
2022-12-01T14:20:47.002Z,14.50
2022-12-01T14:23:34.662Z,14.50
2022-12-01T14:26:19.972Z,14.50
2022-12-01T14:28:56.036Z,14.50
2022-12-01T14:31:23.919Z,14.50
2022-12-01T14:34:19.986Z,14.50
2022-12-01T14:36:53.429Z,14.50
2022-12-01T14:39:27.815Z,14.50
2022-12-01T14:42:00.146Z,14.50
2022-12-01T14:44:33.829Z,14.50
2022-12-01T14:47:10.842Z,14.50
2022-12-01T14:49:55.654Z,14.50
2022-12-01T14:52:33.582Z,14.50
2022-12-01T14:55:07.152Z,14.50
2022-12-01T14:57:39.723Z,14.50
2022-12-01T15:00:13.896Z,14.50
2022-12-01T15:02:43.244Z,14.50
2022-12-01T15:05:14.405Z,14.50
2022-12-01T15:07:44.147Z,14.50
2022-12-01T15:10:34.375Z,14.50
2022-12-01T15:13:35.341Z,14.50
2022-12-01T15:16:04.956Z,14.50
2022-12-01T15:18:37.404Z,14.50
2022-12-01T15:21:13.974Z,14.50
2022-12-01T15:24:06.490Z,14.50
2022-12-01T15:26:36.487Z,14.50
2022-12-01T15:29:16.192Z,14.40
2022-12-01T15:31:47.303Z,14.40
2022-12-01T15:34:19.655Z,14.40
2022-12-01T15:36:47.234Z,14.40
2022-12-01T15:39:20.532Z,14.40
2022-12-01T15:41:53.998Z,14.40
2022-12-01T15:44:27.149Z,14.40
2022-12-01T15:46:54.410Z,14.50
2022-12-01T15:49:30.269Z,14.40
2022-12-01T15:52:11.690Z,14.40
2022-12-01T15:54:39.554Z,14.40
2022-12-01T15:57:07.268Z,14.40
2022-12-01T15:59:46.228Z,14.40
2022-12-01T16:02:29.607Z,14.40
2022-12-01T16:05:24.636Z,14.40
2022-12-01T16:08:13.047Z,14.30
2022-12-01T16:10:38.690Z,14.30
2022-12-01T16:13:43.656Z,14.30
2022-12-01T16:16:49.512Z,14.30
2022-12-01T16:19:23.907Z,14.20
2022-12-01T16:21:58.264Z,14.20
2022-12-01T16:24:52.581Z,14.20
2022-12-01T16:27:30.652Z,14.20
2022-12-01T16:30:02.794Z,14.20
2022-12-01T16:32:38.665Z,14.20
2022-12-01T16:35:07.461Z,14.10
2022-12-01T16:37:34.269Z,14.20
2022-12-01T16:40:01.204Z,14.20
2022-12-01T16:42:28.068Z,14.10
2022-12-01T16:44:54.818Z,14.10
2022-12-01T16:47:24.353Z,14.10
2022-12-01T16:49:52.036Z,14.10
2022-12-01T16:52:43.645Z,14.10
2022-12-01T16:55:24.589Z,14.10
2022-12-01T16:57:51.692Z,14.20
2022-12-01T17:00:18.858Z,14.20
2022-12-01T17:02:45.686Z,14.20
2022-12-01T17:05:12.652Z,14.20
2022-12-01T17:07:39.476Z,14.20
2022-12-01T17:10:07.140Z,14.20
2022-12-01T17:12:33.881Z,14.20
2022-12-01T17:15:00.669Z,14.10
2022-12-01T17:17:29.359Z,14.10
2022-12-01T17:19:56.590Z,14.20
2022-12-01T17:22:23.776Z,14.10
2022-12-01T17:24:50.859Z,14.20
2022-12-01T17:27:18.411Z,14.20
2022-12-01T17:29:46.456Z,14.20
2022-12-01T17:32:14.224Z,14.10
2022-12-01T17:34:41.067Z,14.20
2022-12-01T17:37:08.274Z,14.10
2022-12-01T17:39:35.076Z,14.10
2022-12-01T17:42:01.894Z,14.10
2022-12-01T17:44:28.737Z,14.20
2022-12-01T17:46:55.668Z,14.10
2022-12-01T17:49:22.876Z,14.10
2022-12-01T17:51:49.863Z,14.10
2022-12-01T17:54:16.676Z,14.10
2022-12-01T17:56:43.752Z,14.10
2022-12-01T17:59:10.733Z,14.10
2022-12-01T18:01:37.694Z,14.10
2022-12-01T18:04:04.721Z,14.10
2022-12-01T18:06:31.594Z,14.10
2022-12-01T18:09:00.475Z,14.10
2022-12-01T18:11:27.611Z,14.10
2022-12-01T18:13:54.425Z,14.10
2022-12-01T18:16:30.115Z,14.10
2022-12-01T18:18:58.620Z,14.10
2022-12-01T18:21:26.218Z,14.10
2022-12-01T18:23:58.380Z,14.10
2022-12-01T18:26:26.695Z,14.10
2022-12-01T18:28:59.106Z,14.10
2022-12-01T18:31:27.141Z,14.10
2022-12-01T18:33:53.951Z,14.10
2022-12-01T18:36:23.168Z,14.10
2022-12-01T18:38:51.695Z,14.10
2022-12-01T18:41:19.615Z,14.10
2022-12-01T18:43:47.169Z,14.10
2022-12-01T18:46:15.803Z,14.00
2022-12-01T18:48:47.809Z,14.00
2022-12-01T18:51:15.236Z,14.00
2022-12-01T18:53:42.459Z,14.00
2022-12-01T18:56:12.037Z,14.00
2022-12-01T18:58:39.809Z,14.00
2022-12-01T19:01:26.855Z,14.00
2022-12-01T19:03:58.052Z,14.00
2022-12-01T19:06:26.263Z,14.00
2022-12-01T19:08:53.737Z,14.00
2022-12-01T19:11:20.759Z,14.00
2022-12-01T19:13:47.922Z,14.00
2022-12-01T19:16:17.742Z,14.00
2022-12-01T19:18:45.448Z,14.00
2022-12-01T19:21:14.794Z,14.10
2022-12-01T19:23:42.453Z,14.10
2022-12-01T19:26:12.366Z,14.00
2022-12-01T19:28:40.417Z,14.10
2022-12-01T19:31:11.241Z,14.00
2022-12-01T19:33:38.187Z,14.00
2022-12-01T19:36:10.745Z,14.00
2022-12-01T19:38:37.879Z,14.00
2022-12-01T19:41:05.666Z,13.90
2022-12-01T19:43:34.351Z,14.00
2022-12-01T19:46:12.398Z,13.90
2022-12-01T19:48:39.721Z,14.00
2022-12-01T19:51:06.945Z,14.00
2022-12-01T19:53:34.281Z,14.00
2022-12-01T19:56:05.509Z,14.00
2022-12-01T19:58:33.327Z,14.00
2022-12-01T20:01:04.558Z,14.00
2022-12-01T20:03:31.391Z,14.00
2022-12-01T20:06:05.979Z,14.00
2022-12-01T20:08:35.877Z,14.10
2022-12-01T20:11:04.295Z,14.00
2022-12-01T20:13:39.938Z,14.00
2022-12-01T20:16:08.193Z,14.00
2022-12-01T20:18:36.092Z,14.00
2022-12-01T20:21:17.257Z,14.00
2022-12-01T20:23:46.585Z,14.00
2022-12-01T20:26:14.558Z,14.00
2022-12-01T20:28:41.725Z,14.00
2022-12-01T20:31:12.704Z,14.00
2022-12-01T20:33:41.086Z,14.00
2022-12-01T20:36:09.528Z,14.00
2022-12-01T20:38:37.259Z,14.00
2022-12-01T20:41:05.637Z,14.00
2022-12-01T20:43:33.207Z,14.00
2022-12-01T20:46:00.718Z,14.00
2022-12-01T20:48:27.805Z,14.00
2022-12-01T20:50:54.711Z,14.00
2022-12-01T20:53:22.642Z,14.00
2022-12-01T20:55:49.453Z,14.00
2022-12-01T20:58:16.298Z,14.00
2022-12-01T21:00:46.471Z,14.00
2022-12-01T21:03:13.501Z,14.00
2022-12-01T21:05:42.554Z,14.00
2022-12-01T21:08:12.164Z,14.00
2022-12-01T21:10:41.389Z,13.90
2022-12-01T21:13:43.696Z,13.90
2022-12-01T21:16:16.682Z,13.90
2022-12-01T21:18:54.895Z,13.90
2022-12-01T21:21:27.728Z,13.90
2022-12-01T21:24:17.069Z,13.90
2022-12-01T21:27:01.882Z,14.00
2022-12-01T21:29:44.890Z,14.00
2022-12-01T21:32:29.672Z,14.00
2022-12-01T21:35:03.152Z,13.90
2022-12-01T21:37:30.046Z,14.00
2022-12-01T21:39:57.391Z,13.90
2022-12-01T21:42:30.281Z,14.00
2022-12-01T21:44:57.414Z,14.00
2022-12-01T21:47:27.142Z,14.00
2022-12-01T21:49:58.923Z,13.90
2022-12-01T21:52:37.977Z,13.90
2022-12-01T21:55:17.067Z,13.90
2022-12-01T21:57:47.949Z,13.80
2022-12-01T22:00:29.845Z,13.80
2022-12-01T22:03:08.721Z,13.80
2022-12-01T22:05:41.800Z,13.80
2022-12-01T22:08:22.264Z,13.80
2022-12-01T22:10:55.232Z,13.90
2022-12-01T22:13:32.331Z,13.90
2022-12-01T22:15:59.173Z,13.90
2022-12-01T22:18:41.300Z,13.80
2022-12-01T22:21:23.155Z,13.90
2022-12-01T22:23:57.269Z,13.90
2022-12-01T22:26:26.469Z,13.90
2022-12-01T22:28:56.532Z,13.90
2022-12-01T22:31:23.889Z,13.90
2022-12-01T22:34:03.330Z,13.90
2022-12-01T22:36:33.349Z,13.90
2022-12-01T22:39:01.095Z,13.90
2022-12-01T22:41:31.419Z,13.90
2022-12-01T22:44:00.637Z,13.90
2022-12-01T22:46:39.753Z,13.90
2022-12-01T22:49:06.579Z,13.90
2022-12-01T22:51:41.200Z,13.90
2022-12-01T22:54:43.096Z,13.90
2022-12-01T22:57:33.243Z,13.90
2022-12-01T23:00:17.883Z,13.90
2022-12-01T23:02:47.549Z,13.90
2022-12-01T23:05:24.855Z,13.90
2022-12-01T23:07:52.940Z,13.90
2022-12-01T23:10:21.361Z,13.90
2022-12-01T23:12:50.636Z,13.90
2022-12-01T23:15:34.352Z,13.90
2022-12-01T23:18:24.771Z,13.90
2022-12-01T23:20:56.799Z,13.90
2022-12-01T23:23:32.407Z,13.80
2022-12-01T23:26:02.213Z,13.80
2022-12-01T23:28:29.972Z,13.90
2022-12-01T23:30:58.670Z,13.80
2022-12-01T23:33:31.095Z,13.90
2022-12-01T23:36:11.698Z,13.80
2022-12-01T23:38:41.761Z,13.80
2022-12-01T23:41:16.545Z,13.80
2022-12-01T23:43:45.783Z,13.80
2022-12-01T23:46:19.622Z,13.80
2022-12-01T23:48:51.142Z,13.80
2022-12-01T23:51:32.030Z,13.80
2022-12-01T23:54:01.445Z,13.80
2022-12-01T23:56:31.507Z,13.80
2022-12-01T23:59:00.653Z,13.80
